Time;durP1;ratioP1;P1;durP2;ratioP2;P2;SDS_P1;SDS_P2;PMS_P1;PMS_P2;Temp;Humidity;BMP_temperature;BMP_pressure;BME280_temperature;BME280_humidity;BME280_pressure;Samples;Min_cycle;Max_cycle;Signal;HPM_P1;HPM_P2
2023/01/17 04:35:05;;;;;;;44.00;23.40;;;;;;;3.66;100.00;98611.52;102261;1295;600400;-72
2023/01/17 04:37:32;;;;;;;40.30;29.70;;;;;;;3.63;100.00;98610.56;104501;1273;62401;-71
2023/01/17 04:39:59;;;;;;;42.80;25.90;;;;;;;3.63;100.00;98615.23;104449;1269;61903;-71
2023/01/17 04:42:26;;;;;;;32.00;24.30;;;;;;;3.63;100.00;98622.63;104498;1269;72088;-73
2023/01/17 04:44:53;;;;;;;32.10;22.60;;;;;;;3.65;100.00;98622.83;104336;1274;69273;-72
2023/01/17 04:47:20;;;;;;;30.30;20.30;;;;;;;3.67;100.00;98625.16;104802;1271;74864;-73
2023/01/17 04:49:47;;;;;;;30.50;19.30;;;;;;;3.68;100.00;98624.50;104166;1268;622694;-70
2023/01/17 04:52:17;;;;;;;26.60;18.30;;;;;;;3.65;100.00;98626.14;104680;1266;61183;-72
2023/01/17 04:54:44;;;;;;;26.10;18.80;;;;;;;3.61;100.00;98629.33;104496;1267;74566;-73
2023/01/17 04:57:12;;;;;;;25.80;16.30;;;;;;;3.57;100.00;98624.52;104650;1273;69408;-71
2023/01/17 04:59:39;;;;;;;22.00;16.80;;;;;;;3.56;100.00;98627.84;104663;1268;72897;-72
2023/01/17 05:02:05;;;;;;;22.70;17.50;;;;;;;3.49;100.00;98622.61;104846;1265;61973;-72
2023/01/17 05:04:32;;;;;;;22.20;15.60;;;;;;;3.40;100.00;98624.77;104945;1268;62327;-73
2023/01/17 05:06:59;;;;;;;22.10;15.80;;;;;;;3.39;100.00;98623.67;104777;1273;74810;-74
2023/01/17 05:09:26;;;;;;;26.40;17.40;;;;;;;3.41;100.00;98618.08;104924;1265;68492;-71
2023/01/17 05:11:54;;;;;;;29.90;18.10;;;;;;;3.39;100.00;98611.71;104936;1266;73591;-72
2023/01/17 05:14:25;;;;;;;23.70;17.70;;;;;;;3.38;100.00;98615.20;104863;1266;64088;-73
2023/01/17 05:16:55;;;;;;;24.80;18.60;;;;;;;3.39;100.00;98617.06;104516;1273;61527;-73
2023/01/17 05:19:23;;;;;;;23.60;17.00;;;;;;;3.37;100.00;98614.73;105004;1266;74916;-73
2023/01/17 05:21:49;;;;;;;34.40;20.80;;;;;;;3.32;100.00;98614.73;104934;1265;67432;-74
2023/01/17 05:24:17;;;;;;;40.80;23.30;;;;;;;3.30;100.00;98615.27;104857;1265;75070;-73
2023/01/17 05:26:44;;;;;;;38.50;23.50;;;;;;;3.28;100.00;98615.80;104875;1268;64003;-73
2023/01/17 05:29:11;;;;;;;30.40;22.10;;;;;;;3.27;100.00;98617.77;104770;1267;62752;-72
2023/01/17 05:31:38;;;;;;;36.60;24.90;;;;;;;3.28;100.00;98613.73;105288;1259;75584;-72
2023/01/17 05:34:05;;;;;;;32.90;22.90;;;;;;;3.32;100.00;98605.21;105126;1261;69062;-73
2023/01/17 05:36:33;;;;;;;36.90;23.50;;;;;;;3.36;100.00;98599.56;105391;1263;74084;-70
2023/01/17 05:39:00;;;;;;;30.10;19.80;;;;;;;3.37;100.00;98598.36;105035;1265;61523;-70
2023/01/17 05:41:27;;;;;;;28.70;22.30;;;;;;;3.40;100.00;98598.08;105400;1261;62464;-71
2023/01/17 05:43:54;;;;;;;30.60;20.10;;;;;;;3.42;100.00;98600.70;105303;1260;73202;-72
2023/01/17 05:46:20;;;;;;;34.10;20.00;;;;;;;3.40;100.00;98596.00;104947;1267;68050;-72
2023/01/17 05:48:47;;;;;;;27.10;19.90;;;;;;;3.41;100.00;98599.73;105334;1268;73385;-72
2023/01/17 05:51:14;;;;;;;32.40;22.20;;;;;;;3.37;100.00;98596.56;105096;1267;63677;-72
2023/01/17 05:53:41;;;;;;;30.40;19.60;;;;;;;3.35;100.00;98602.05;104941;1262;60393;-72
2023/01/17 05:56:08;;;;;;;25.70;19.30;;;;;;;3.35;100.00;98604.83;105008;1260;71893;-72
2023/01/17 05:58:35;;;;;;;33.50;23.60;;;;;;;3.33;100.00;98609.02;105045;1260;70151;-72
2023/01/17 06:01:02;;;;;;;37.00;21.50;;;;;;;3.33;100.00;98610.41;105388;1258;73063;-71
2023/01/17 06:03:29;;;;;;;33.00;21.30;;;;;;;3.36;100.00;98610.94;105673;1256;63626;-72
2023/01/17 06:05:55;;;;;;;32.90;22.30;;;;;;;3.41;100.00;98614.41;105409;1256;61745;-70
2023/01/17 06:08:22;;;;;;;26.50;19.00;;;;;;;3.42;100.00;98612.26;105677;1258;73807;-72
2023/01/17 06:10:49;;;;;;;41.30;22.60;;;;;;;3.42;100.00;98614.80;105419;1256;68448;-71
2023/01/17 06:13:20;;;;;;;31.80;21.30;;;;;;;3.43;100.00;98612.91;105086;1259;74583;-73
2023/01/17 06:15:47;;;;;;;31.20;20.20;;;;;;;3.45;100.00;98611.75;105748;1260;61952;-72
2023/01/17 06:18:15;;;;;;;37.00;21.60;;;;;;;3.50;100.00;98620.90;105700;1261;62749;-71
2023/01/17 06:20:42;;;;;;;32.00;20.60;;;;;;;3.52;100.00;98622.20;105778;1260;73977;-71
2023/01/17 06:23:10;;;;;;;33.10;22.50;;;;;;;3.52;100.00;98628.65;105698;1256;68843;-73
2023/01/17 06:25:44;;;;;;;42.50;23.50;;;;;;;3.51;100.00;98632.66;105787;1256;74563;-71
2023/01/17 06:28:16;;;;;;;34.40;21.10;;;;;;;3.51;100.00;98630.96;105422;1256;61726;-71
2023/01/17 06:30:43;;;;;;;33.20;23.20;;;;;;;3.51;100.00;98635.90;105186;1256;60879;-71
2023/01/17 06:33:10;;;;;;;43.70;24.50;;;;;;;3.54;100.00;98638.33;105044;1262;73297;-71
2023/01/17 06:35:39;;;;;;;30.80;20.80;;;;;;;3.58;100.00;98640.70;105127;1261;68791;-71
2023/01/17 06:38:06;;;;;;;42.70;24.40;;;;;;;3.58;100.00;98644.31;105118;1263;72988;-71
2023/01/17 06:40:33;;;;;;;35.20;22.30;;;;;;;3.60;100.00;98644.09;105785;1256;62472;-72
2023/01/17 06:43:04;;;;;;;29.00;20.60;;;;;;;3.62;100.00;98641.21;105774;1256;62835;-72
2023/01/17 06:45:32;;;;;;;32.40;22.70;;;;;;;3.61;100.00;98638.89;105726;1256;73522;-71
2023/01/17 06:47:59;;;;;;;30.60;22.40;;;;;;;3.61;100.00;98643.35;105280;1256;69221;-71
2023/01/17 06:50:26;;;;;;;36.90;23.30;;;;;;;3.64;100.00;98643.80;105171;1256;74332;-69
2023/01/17 06:52:55;;;;;;;32.60;21.90;;;;;;;3.68;100.00;98651.13;105249;1256;62918;-70
2023/01/17 06:55:22;;;;;;;35.40;23.20;;;;;;;3.69;100.00;98647.76;105158;1257;62754;-72
2023/01/17 06:57:49;;;;;;;33.70;22.70;;;;;;;3.70;100.00;98652.19;105469;1258;74448;-71
2023/01/17 07:00:16;;;;;;;29.60;22.00;;;;;;;3.67;100.00;98653.02;105561;1261;68209;-70
2023/01/17 07:02:46;;;;;;;28.70;18.40;;;;;;;3.66;100.00;98652.63;105246;1262;73330;-70
2023/01/17 07:05:15;;;;;;;38.30;24.00;;;;;;;3.65;100.00;98652.71;105354;1256;63339;-72
2023/01/17 07:07:45;;;;;;;31.80;21.40;;;;;;;3.67;100.00;98650.73;105422;1256;60686;-68
2023/01/17 07:10:12;;;;;;;33.30;21.60;;;;;;;3.65;100.00;98646.55;105191;1256;74351;-71
2023/01/17 07:12:40;;;;;;;36.80;23.30;;;;;;;3.67;100.00;98642.23;105187;1256;67544;-70
2023/01/17 07:15:08;;;;;;;38.40;23.20;;;;;;;3.67;100.00;98638.55;105430;1260;72955;-70
2023/01/17 07:17:34;;;;;;;34.70;21.60;;;;;;;3.67;100.00;98638.30;105325;1258;63549;-69
2023/01/17 07:20:01;;;;;;;40.40;25.00;;;;;;;3.66;100.00;98639.01;105080;1256;63069;-71
2023/01/17 07:22:28;;;;;;;32.60;22.70;;;;;;;3.65;100.00;98639.42;105278;1256;74743;-68
2023/01/17 07:24:57;;;;;;;39.30;25.20;;;;;;;3.67;100.00;98639.89;105404;1256;68138;-71
2023/01/17 07:27:26;;;;;;;36.50;26.50;;;;;;;3.68;100.00;98636.16;105082;1257;75541;-73
2023/01/17 07:29:53;;;;;;;34.10;23.20;;;;;;;3.69;100.00;98640.44;105123;1256;60191;-70
2023/01/17 07:32:20;;;;;;;35.10;23.50;;;;;;;3.70;100.00;98639.92;105244;1260;60247;-73
2023/01/17 07:34:47;;;;;;;33.90;23.70;;;;;;;3.74;100.00;98632.23;104970;1259;75315;-70
2023/01/17 07:37:14;;;;;;;43.00;24.40;;;;;;;3.79;100.00;98628.64;105104;1256;70552;-69
2023/01/17 07:39:41;;;;;;;36.50;25.60;;;;;;;3.82;100.00;98631.83;105185;1259;71685;-73
2023/01/17 07:42:08;;;;;;;48.20;26.90;;;;;;;3.84;100.00;98632.80;105434;1256;61678;-73
2023/01/17 07:44:42;;;;;;;34.50;24.50;;;;;;;3.86;100.00;98625.98;105380;1256;62424;-76
2023/01/17 07:47:11;;;;;;;45.70;28.00;;;;;;;3.85;100.00;98625.83;105500;1257;73521;-71
2023/01/17 07:49:40;;;;;;;39.90;25.10;;;;;;;3.85;100.00;98625.98;105475;1263;69226;-70
2023/01/17 07:52:08;;;;;;;33.00;22.80;;;;;;;3.88;100.00;98619.89;104833;1259;74655;-71
2023/01/17 07:54:37;;;;;;;39.50;25.00;;;;;;;3.88;100.00;98620.70;105396;1256;64560;-71
2023/01/17 07:57:05;;;;;;;44.70;27.10;;;;;;;3.90;100.00;98617.67;105025;1256;63133;-71
2023/01/17 07:59:33;;;;;;;33.40;21.90;;;;;;;3.92;100.00;98619.68;105240;1259;72868;-71
2023/01/17 08:02:00;;;;;;;34.40;23.30;;;;;;;3.95;100.00;98615.95;105355;1261;70119;-71
2023/01/17 08:04:33;;;;;;;36.50;25.50;;;;;;;3.98;100.00;98621.53;105234;1261;72988;-71
2023/01/17 08:07:00;;;;;;;32.70;26.10;;;;;;;3.98;100.00;98621.27;105212;1261;64619;-71
2023/01/17 08:09:27;;;;;;;42.20;27.80;;;;;;;3.99;100.00;98620.98;105451;1257;60120;-71
2023/01/17 08:11:54;;;;;;;36.20;23.80;;;;;;;3.95;100.00;98620.79;105021;1264;73364;-70
2023/01/17 14:15:28;;;;;;;103.60;58.30;;;;;;;3.65;100.00;98371.77;102408;1298;600130;-72
2023/01/17 14:18:07;;;;;;;94.70;52.30;;;;;;;3.62;100.00;98365.48;104316;1275;61614;-73
2023/01/17 14:20:46;;;;;;;87.30;57.90;;;;;;;3.62;100.00;98359.38;105326;1276;62480;-78
2023/01/17 14:23:21;;;;;;;77.20;50.60;;;;;;;3.64;100.00;98355.75;106305;1276;73273;-70
2023/01/17 14:25:48;;;;;;;84.70;52.00;;;;;;;3.66;100.00;98347.59;105564;1274;69975;-74
2023/01/17 14:28:20;;;;;;;70.30;46.40;;;;;;;3.67;100.00;98342.84;105312;1272;674882;-74
2023/01/17 14:30:52;;;;;;;69.10;44.80;;;;;;;3.71;100.00;98339.45;106275;1271;61719;-72
2023/01/17 14:33:25;;;;;;;70.10;41.80;;;;;;;3.76;100.00;98341.66;106437;1267;61932;-75
2023/01/17 14:35:57;;;;;;;72.20;42.10;;;;;;;3.80;100.00;98340.99;106544;1259;71599;-74
2023/01/17 14:38:28;;;;;;;64.00;38.90;;;;;;;3.87;100.00;98347.77;106509;1265;68950;-76
2023/01/17 14:41:12;;;;;;;70.70;43.30;;;;;;;3.92;100.00;98355.36;106308;1266;71523;-75
2023/01/17 14:43:40;;;;;;;60.70;37.20;;;;;;;3.94;100.00;98356.71;106430;1263;61119;-72
2023/01/17 14:46:33;;;;;;;62.10;40.20;;;;;;;3.95;100.00;98359.75;106343;1260;59720;-75
2023/01/17 14:49:05;;;;;;;58.80;36.60;;;;;;;3.99;100.00;98356.52;106144;1261;74198;-77
2023/01/17 14:51:33;;;;;;;64.80;39.70;;;;;;;4.02;100.00;98356.73;106370;1264;69712;-73
2023/01/17 14:54:12;;;;;;;60.60;37.20;;;;;;;4.04;100.00;98362.11;106139;1266;73396;-73
2023/01/17 14:56:39;;;;;;;60.90;37.20;;;;;;;4.10;100.00;98368.31;106303;1266;63092;-74
2023/01/17 14:59:20;;;;;;;51.30;33.40;;;;;;;4.19;100.00;98365.71;106168;1261;61975;-73
2023/01/17 15:01:57;;;;;;;52.10;35.80;;;;;;;4.24;100.00;98375.10;106295;1261;73142;-72
2023/01/17 15:04:37;;;;;;;51.70;34.60;;;;;;;4.28;100.00;98371.08;105922;1260;67989;-71
2023/01/17 15:07:06;;;;;;;51.50;32.50;;;;;;;4.34;100.00;98366.32;106053;1260;71942;-73
2023/01/17 15:09:35;;;;;;;51.10;34.00;;;;;;;4.35;100.00;98364.66;105771;1257;62670;-72
2023/01/17 15:12:07;;;;;;;54.30;37.50;;;;;;;4.38;100.00;98359.30;105617;1258;62099;-73
2023/01/17 15:14:37;;;;;;;55.10;35.30;;;;;;;4.37;100.00;98358.38;106041;1257;72801;-78
2023/01/17 15:17:17;;;;;;;65.00;37.10;;;;;;;4.35;100.00;98356.39;106289;1257;69513;-78
2023/01/17 15:19:48;;;;;;;50.90;32.30;;;;;;;4.35;100.00;98362.40;105914;1262;73865;-79
2023/01/17 15:22:16;;;;;;;51.00;35.00;;;;;;;4.36;100.00;98363.11;105813;1259;63355;-85
2023/01/17 15:24:46;;;;;;;53.20;33.80;;;;;;;4.36;100.00;98363.23;105819;1257;62119;-85
2023/01/17 15:27:17;;;;;;;57.80;36.80;;;;;;;4.41;100.00;98355.95;105803;1257;71721;-77
2023/01/17 15:29:44;;;;;;;43.80;31.70;;;;;;;4.44;100.00;98353.55;105749;1260;66852;-75
2023/01/17 15:32:19;;;;;;;54.70;35.30;;;;;;;4.46;100.00;98360.06;105878;1261;73969;-80
2023/01/17 15:34:47;;;;;;;48.00;32.60;;;;;;;4.48;100.00;98359.88;105762;1257;63164;-91
2023/01/17 15:37:34;;;;;;;51.30;35.00;;;;;;;4.52;100.00;98359.73;105448;1258;61139;-76
2023/01/17 15:40:21;;;;;;;47.50;29.90;;;;;;;4.61;100.00;98364.66;105623;1256;74487;-79
2023/01/17 15:42:55;;;;;;;60.60;38.00;;;;;;;4.63;100.00;98365.06;105725;1263;69737;-79
2023/01/17 15:45:26;;;;;;;47.50;33.70;;;;;;;4.60;100.00;98355.71;105761;1263;72608;-75
2023/01/17 15:47:53;;;;;;;50.80;33.50;;;;;;;4.62;100.00;98360.09;106001;1257;62123;-79
2023/01/17 15:50:29;;;;;;;44.70;31.70;;;;;;;4.63;100.00;98364.38;105923;1257;60995;-77
2023/01/17 15:53:04;;;;;;;50.70;33.00;;;;;;;4.66;100.00;98364.27;105923;1262;73891;-79
2023/01/17 15:55:35;;;;;;;51.10;33.20;;;;;;;4.72;100.00;98355.77;105611;1258;70493;-78
2023/01/17 15:58:04;;;;;;;67.70;36.30;;;;;;;4.73;100.00;98353.45;105924;1260;73835;-81
2023/01/17 16:00:37;;;;;;;50.90;33.10;;;;;;;4.70;100.00;98352.02;105795;1258;62388;-76
2023/01/17 16:03:20;;;;;;;51.90;32.50;;;;;;;4.71;100.00;98363.38;105423;1258;62323;-76
2023/01/17 16:05:48;;;;;;;54.70;37.20;;;;;;;4.75;100.00;98370.23;105705;1261;73722;-77
2023/01/17 16:08:15;;;;;;;45.10;31.00;;;;;;;4.78;100.00;98375.73;105812;1263;69224;-78
2023/01/17 16:10:43;;;;;;;46.10;29.60;;;;;;;4.81;100.00;98377.48;105523;1257;74857;-75
2023/01/17 22:20:23;;;;;;;73.50;49.10;;;;;;;5.38;100.00;98563.30;102024;1293;600342;-70
2023/01/17 22:22:50;;;;;;;76.20;50.30;;;;;;;5.37;100.00;98563.45;104495;1269;60872;-69
2023/01/17 22:25:18;;;;;;;71.50;47.50;;;;;;;5.40;100.00;98565.14;104558;1274;61766;-69
2023/01/17 22:27:45;;;;;;;67.60;43.50;;;;;;;5.43;100.00;98566.45;104443;1274;72670;-69
2023/01/17 22:30:13;;;;;;;72.10;44.70;;;;;;;5.48;100.00;98566.86;104465;1274;69484;-67
2023/01/17 22:32:40;;;;;;;69.50;40.50;;;;;;;5.54;100.00;98562.80;104767;1262;75275;-70
2023/01/17 22:35:08;;;;;;;57.80;38.70;;;;;;;5.60;100.00;98560.48;104320;1262;645312;-68
2023/01/17 22:37:34;;;;;;;52.50;35.30;;;;;;;5.68;100.00;98560.20;104982;1265;61197;-68
2023/01/17 22:40:03;;;;;;;47.40;33.80;;;;;;;5.75;100.00;98555.02;104911;1262;73970;-68
2023/01/17 22:42:33;;;;;;;51.60;30.50;;;;;;;5.82;100.00;98554.91;104867;1262;70802;-71
2023/01/17 22:45:00;;;;;;;44.20;31.40;;;;;;;5.88;100.00;98559.77;105011;1262;73502;-71
2023/01/17 22:47:28;;;;;;;45.10;32.40;;;;;;;5.93;100.00;98565.06;104974;1262;64162;-71
2023/01/17 22:49:55;;;;;;;43.30;29.20;;;;;;;5.97;100.00;98566.66;104997;1265;62650;-70
2023/01/17 22:52:21;;;;;;;43.50;26.70;;;;;;;6.03;100.00;98564.17;104972;1262;71630;-69
2023/01/17 22:54:49;;;;;;;41.40;28.80;;;;;;;6.04;100.00;98560.83;105140;1259;68204;-70
2023/01/17 22:57:16;;;;;;;32.80;25.10;;;;;;;6.07;100.00;98560.91;108920;1259;73894;-68
2023/01/17 22:59:43;;;;;;;37.20;28.10;;;;;;;6.12;100.00;98558.21;108866;1262;61742;-70
2023/01/17 23:02:10;;;;;;;43.70;27.40;;;;;;;6.11;100.00;98555.20;108877;1259;59038;-68
2023/01/17 23:04:37;;;;;;;39.20;27.30;;;;;;;6.14;100.00;98556.69;108954;1259;73942;-70
2023/01/17 23:07:04;;;;;;;44.80;27.60;;;;;;;6.17;100.00;98563.55;108832;1259;69519;-68
2023/01/17 23:09:30;;;;;;;41.10;27.50;;;;;;;6.18;100.00;98563.98;108896;1259;73460;-68
2023/01/17 23:11:57;;;;;;;41.10;29.40;;;;;;;6.23;100.00;98569.23;108910;1259;60254;-70
2023/01/17 23:20:07;;;;;;;38.20;27.80;;;;;;;6.09;100.00;98563.66;108832;1259;68503;-68
2023/01/17 23:22:34;;;;;;;35.10;25.40;;;;;;;6.01;100.00;98562.14;108866;1259;70993;-68
2023/01/17 23:25:05;;;;;;;36.00;21.90;;;;;;;5.96;100.00;98560.62;108932;1259;61902;-69
2023/01/17 23:30:36;;;;;;;59.60;41.60;;;;;;;6.10;100.00;98571.73;108911;1259;75085;-68
2023/01/17 23:33:04;;;;;;;68.90;44.60;;;;;;;6.19;100.00;98572.80;108985;1259;68397;-68
2023/01/17 23:35:32;;;;;;;66.60;45.80;;;;;;;6.25;100.00;98573.67;108919;1259;71549;-67
2023/01/17 23:43:30;;;;;;;64.30;38.40;;;;;;;6.38;100.00;98581.09;108816;1259;75137;-73
2023/01/17 23:45:57;;;;;;;49.30;31.90;;;;;;;6.38;100.00;98584.30;108983;1259;68665;-70
2023/01/17 23:48:27;;;;;;;41.70;27.80;;;;;;;6.43;100.00;98585.38;108866;1266;74668;-70
2023/01/17 23:50:58;;;;;;;34.20;26.60;;;;;;;6.50;100.00;98585.98;108943;1259;61285;-70
2023/01/17 23:53:26;;;;;;;36.60;27.50;;;;;;;6.52;100.00;98588.89;108876;1259;62412;-71
2023/01/17 23:55:54;;;;;;;41.80;30.20;;;;;;;6.54;100.00;98589.88;108970;1259;73645;-72
2023/01/17 23:58:25;;;;;;;36.90;29.50;;;;;;;6.54;100.00;98591.27;108978;1259;68638;-70
